sensor_id;sensor_type;location;lat;lon;timestamp;temperature;humidity
82001;SHT30;71522;50.870;3.524;2023-11-19T00:00:43;14.20;87.47
82001;SHT30;71522;50.870;3.524;2023-11-19T00:03:08;14.23;87.19
82001;SHT30;71522;50.870;3.524;2023-11-19T00:05:34;14.26;86.97
82001;SHT30;71522;50.870;3.524;2023-11-19T00:08:00;14.20;86.87
82001;SHT30;71522;50.870;3.524;2023-11-19T00:10:25;14.19;86.62
82001;SHT30;71522;50.870;3.524;2023-11-19T00:12:51;14.19;86.67
82001;SHT30;71522;50.870;3.524;2023-11-19T00:15:17;14.26;86.43
82001;SHT30;71522;50.870;3.524;2023-11-19T00:17:47;14.23;86.37
82001;SHT30;71522;50.870;3.524;2023-11-19T00:20:15;14.15;86.63
82001;SHT30;71522;50.870;3.524;2023-11-19T00:22:41;14.16;86.63
82001;SHT30;71522;50.870;3.524;2023-11-19T00:25:08;14.22;86.41
82001;SHT30;71522;50.870;3.524;2023-11-19T00:27:34;14.27;86.26
82001;SHT30;71522;50.870;3.524;2023-11-19T00:29:59;14.32;85.99
82001;SHT30;71522;50.870;3.524;2023-11-19T00:32:25;14.27;85.98
82001;SHT30;71522;50.870;3.524;2023-11-19T00:34:52;14.24;86.19
82001;SHT30;71522;50.870;3.524;2023-11-19T00:37:17;14.32;86.04
82001;SHT30;71522;50.870;3.524;2023-11-19T00:39:43;14.27;85.92
82001;SHT30;71522;50.870;3.524;2023-11-19T00:42:09;14.23;86.14
82001;SHT30;71522;50.870;3.524;2023-11-19T00:44:39;14.09;86.53
82001;SHT30;71522;50.870;3.524;2023-11-19T00:47:05;13.85;87.32
82001;SHT30;71522;50.870;3.524;2023-11-19T00:49:31;13.72;87.79
82001;SHT30;71522;50.870;3.524;2023-11-19T00:51:58;13.61;88.11
82001;SHT30;71522;50.870;3.524;2023-11-19T00:54:25;13.55;88.44
82001;SHT30;71522;50.870;3.524;2023-11-19T00:56:52;13.51;88.31
82001;SHT30;71522;50.870;3.524;2023-11-19T00:59:18;13.51;88.02
82001;SHT30;71522;50.870;3.524;2023-11-19T01:01:44;13.50;88.33
82001;SHT30;71522;50.870;3.524;2023-11-19T01:04:10;13.54;88.31
82001;SHT30;71522;50.870;3.524;2023-11-19T01:06:35;13.58;88.16
82001;SHT30;71522;50.870;3.524;2023-11-19T01:09:01;13.58;88.20
82001;SHT30;71522;50.870;3.524;2023-11-19T01:11:27;13.57;88.10
82001;SHT30;71522;50.870;3.524;2023-11-19T01:13:53;13.61;87.72
82001;SHT30;71522;50.870;3.524;2023-11-19T01:16:20;13.64;87.52
82001;SHT30;71522;50.870;3.524;2023-11-19T01:18:49;13.64;87.59
82001;SHT30;71522;50.870;3.524;2023-11-19T01:21:15;13.74;87.05
82001;SHT30;71522;50.870;3.524;2023-11-19T01:23:42;13.76;86.59
82001;SHT30;71522;50.870;3.524;2023-11-19T01:26:11;13.61;86.39
82001;SHT30;71522;50.870;3.524;2023-11-19T01:28:40;13.55;86.86
82001;SHT30;71522;50.870;3.524;2023-11-19T01:31:08;13.53;87.03
82001;SHT30;71522;50.870;3.524;2023-11-19T01:33:36;13.64;86.62
82001;SHT30;71522;50.870;3.524;2023-11-19T01:36:02;13.64;86.62
82001;SHT30;71522;50.870;3.524;2023-11-19T01:38:27;13.68;86.35
82001;SHT30;71522;50.870;3.524;2023-11-19T01:40:59;13.71;86.18
82001;SHT30;71522;50.870;3.524;2023-11-19T01:43:35;13.66;86.19
82001;SHT30;71522;50.870;3.524;2023-11-19T01:46:05;13.68;86.05
82001;SHT30;71522;50.870;3.524;2023-11-19T01:48:35;13.69;86.28
82001;SHT30;71522;50.870;3.524;2023-11-19T01:51:03;13.62;86.23
82001;SHT30;71522;50.870;3.524;2023-11-19T01:53:30;13.59;86.46
82001;SHT30;71522;50.870;3.524;2023-11-19T01:55:56;13.53;86.57
82001;SHT30;71522;50.870;3.524;2023-11-19T01:58:23;13.53;86.37
82001;SHT30;71522;50.870;3.524;2023-11-19T02:00:49;13.48;86.55
82001;SHT30;71522;50.870;3.524;2023-11-19T02:03:15;13.45;86.18
82001;SHT30;71522;50.870;3.524;2023-11-19T02:05:41;13.53;86.03
82001;SHT30;71522;50.870;3.524;2023-11-19T02:08:08;13.51;85.77
82001;SHT30;71522;50.870;3.524;2023-11-19T02:10:34;13.54;85.40
82001;SHT30;71522;50.870;3.524;2023-11-19T02:13:00;13.48;85.09
82001;SHT30;71522;50.870;3.524;2023-11-19T02:15:26;13.37;85.30
82001;SHT30;71522;50.870;3.524;2023-11-19T02:17:52;13.28;85.04
82001;SHT30;71522;50.870;3.524;2023-11-19T02:20:18;13.26;86.17
82001;SHT30;71522;50.870;3.524;2023-11-19T02:22:49;13.16;85.95
82001;SHT30;71522;50.870;3.524;2023-11-19T02:25:29;13.08;86.03
82001;SHT30;71522;50.870;3.524;2023-11-19T02:28:10;13.14;86.13
82001;SHT30;71522;50.870;3.524;2023-11-19T02:30:37;13.08;86.13
82001;SHT30;71522;50.870;3.524;2023-11-19T02:33:03;13.00;86.28
82001;SHT30;71522;50.870;3.524;2023-11-19T02:35:31;12.92;86.60
82001;SHT30;71522;50.870;3.524;2023-11-19T02:37:58;12.86;86.90
82001;SHT30;71522;50.870;3.524;2023-11-19T02:40:29;12.95;86.43
82001;SHT30;71522;50.870;3.524;2023-11-19T02:42:55;13.02;86.07
82001;SHT30;71522;50.870;3.524;2023-11-19T02:45:25;13.02;86.01
82001;SHT30;71522;50.870;3.524;2023-11-19T02:47:52;12.96;85.65
82001;SHT30;71522;50.870;3.524;2023-11-19T02:50:19;13.00;85.60
82001;SHT30;71522;50.870;3.524;2023-11-19T02:52:52;12.93;86.05
82001;SHT30;71522;50.870;3.524;2023-11-19T02:55:19;12.93;85.97
82001;SHT30;71522;50.870;3.524;2023-11-19T02:57:45;12.93;85.82
82001;SHT30;71522;50.870;3.524;2023-11-19T03:00:18;12.89;85.56
82001;SHT30;71522;50.870;3.524;2023-11-19T03:02:49;12.90;85.96
82001;SHT30;71522;50.870;3.524;2023-11-19T03:05:26;12.87;85.31
82001;SHT30;71522;50.870;3.524;2023-11-19T03:07:55;12.86;85.56
82001;SHT30;71522;50.870;3.524;2023-11-19T03:10:21;12.86;85.79
82001;SHT30;71522;50.870;3.524;2023-11-19T03:12:46;12.80;85.95
82001;SHT30;71522;50.870;3.524;2023-11-19T03:15:12;12.80;85.51
82001;SHT30;71522;50.870;3.524;2023-11-19T03:17:42;12.73;86.02
82001;SHT30;71522;50.870;3.524;2023-11-19T03:20:11;12.76;85.95
82001;SHT30;71522;50.870;3.524;2023-11-19T03:22:41;12.80;85.82
82001;SHT30;71522;50.870;3.524;2023-11-19T03:25:07;12.83;85.91
82001;SHT30;71522;50.870;3.524;2023-11-19T03:27:37;12.87;85.88
82001;SHT30;71522;50.870;3.524;2023-11-19T03:30:08;12.93;85.53
82001;SHT30;71522;50.870;3.524;2023-11-19T03:32:35;12.95;85.49
82001;SHT30;71522;50.870;3.524;2023-11-19T03:35:02;12.99;85.51
82001;SHT30;71522;50.870;3.524;2023-11-19T03:37:30;12.93;85.22
82001;SHT30;71522;50.870;3.524;2023-11-19T03:39:57;12.95;85.07
82001;SHT30;71522;50.870;3.524;2023-11-19T03:42:26;12.93;84.95
82001;SHT30;71522;50.870;3.524;2023-11-19T03:44:53;12.87;85.26
82001;SHT30;71522;50.870;3.524;2023-11-19T03:47:19;12.73;85.57
82001;SHT30;71522;50.870;3.524;2023-11-19T03:49:51;12.62;86.42
82001;SHT30;71522;50.870;3.524;2023-11-19T03:52:18;12.63;85.72
82001;SHT30;71522;50.870;3.524;2023-11-19T03:54:44;12.68;85.94
82001;SHT30;71522;50.870;3.524;2023-11-19T03:57:12;12.65;86.04
82001;SHT30;71522;50.870;3.524;2023-11-19T03:59:38;12.75;85.82
82001;SHT30;71522;50.870;3.524;2023-11-19T04:02:04;12.73;85.43
82001;SHT30;71522;50.870;3.524;2023-11-19T04:04:30;12.73;85.57
82001;SHT30;71522;50.870;3.524;2023-11-19T04:06:56;12.66;85.51
82001;SHT30;71522;50.870;3.524;2023-11-19T04:09:23;12.66;85.36
82001;SHT30;71522;50.870;3.524;2023-11-19T04:11:49;12.58;85.59
82001;SHT30;71522;50.870;3.524;2023-11-19T04:14:14;12.60;85.18
82001;SHT30;71522;50.870;3.524;2023-11-19T04:16:43;12.59;85.05
82001;SHT30;71522;50.870;3.524;2023-11-19T04:19:09;12.55;85.06
82001;SHT30;71522;50.870;3.524;2023-11-19T04:21:34;12.53;84.77
82001;SHT30;71522;50.870;3.524;2023-11-19T04:24:00;12.48;84.57
82001;SHT30;71522;50.870;3.524;2023-11-19T04:26:26;12.32;84.73
82001;SHT30;71522;50.870;3.524;2023-11-19T04:28:52;12.30;84.40
82001;SHT30;71522;50.870;3.524;2023-11-19T04:31:18;12.37;84.57
82001;SHT30;71522;50.870;3.524;2023-11-19T04:33:43;12.32;84.62
82001;SHT30;71522;50.870;3.524;2023-11-19T04:36:10;12.30;84.09
82001;SHT30;71522;50.870;3.524;2023-11-19T04:38:36;12.21;83.86
82001;SHT30;71522;50.870;3.524;2023-11-19T04:41:05;12.20;84.14
82001;SHT30;71522;50.870;3.524;2023-11-19T04:43:31;12.22;83.81
82001;SHT30;71522;50.870;3.524;2023-11-19T04:45:57;12.18;83.59
82001;SHT30;71522;50.870;3.524;2023-11-19T04:48:23;12.24;83.87
82001;SHT30;71522;50.870;3.524;2023-11-19T04:50:49;12.21;83.55
82001;SHT30;71522;50.870;3.524;2023-11-19T04:53:16;12.25;83.93
82001;SHT30;71522;50.870;3.524;2023-11-19T04:55:42;12.31;83.43
82001;SHT30;71522;50.870;3.524;2023-11-19T04:58:08;12.25;83.25
82001;SHT30;71522;50.870;3.524;2023-11-19T05:00:34;12.27;83.46
82001;SHT30;71522;50.870;3.524;2023-11-19T05:03:00;12.24;83.11
82001;SHT30;71522;50.870;3.524;2023-11-19T05:05:26;12.25;83.31
82001;SHT30;71522;50.870;3.524;2023-11-19T05:07:52;12.22;83.38
82001;SHT30;71522;50.870;3.524;2023-11-19T05:10:18;12.17;83.33
82001;SHT30;71522;50.870;3.524;2023-11-19T05:12:44;12.13;83.74
82001;SHT30;71522;50.870;3.524;2023-11-19T05:15:10;12.02;84.75
82001;SHT30;71522;50.870;3.524;2023-11-19T05:17:37;11.98;84.95
82001;SHT30;71522;50.870;3.524;2023-11-19T05:20:03;11.95;84.79
82001;SHT30;71522;50.870;3.524;2023-11-19T05:22:29;11.98;85.07
82001;SHT30;71522;50.870;3.524;2023-11-19T05:24:55;12.01;85.00
82001;SHT30;71522;50.870;3.524;2023-11-19T05:27:21;11.97;84.32
82001;SHT30;71522;50.870;3.524;2023-11-19T05:29:49;11.94;84.15
82001;SHT30;71522;50.870;3.524;2023-11-19T05:32:14;11.93;84.22
82001;SHT30;71522;50.870;3.524;2023-11-19T05:34:40;11.91;84.21
82001;SHT30;71522;50.870;3.524;2023-11-19T05:37:06;11.87;84.39
82001;SHT30;71522;50.870;3.524;2023-11-19T05:39:31;11.83;84.64
82001;SHT30;71522;50.870;3.524;2023-11-19T05:41:57;11.73;84.68
82001;SHT30;71522;50.870;3.524;2023-11-19T05:44:23;11.74;85.54
82001;SHT30;71522;50.870;3.524;2023-11-19T05:46:48;11.81;85.22
82001;SHT30;71522;50.870;3.524;2023-11-19T05:49:14;11.79;84.81
82001;SHT30;71522;50.870;3.524;2023-11-19T05:51:40;11.79;84.34
82001;SHT30;71522;50.870;3.524;2023-11-19T05:54:09;11.79;84.57
82001;SHT30;71522;50.870;3.524;2023-11-19T05:56:36;11.77;84.48
82001;SHT30;71522;50.870;3.524;2023-11-19T05:59:02;11.79;84.31
82001;SHT30;71522;50.870;3.524;2023-11-19T06:01:35;11.76;84.69
82001;SHT30;71522;50.870;3.524;2023-11-19T06:04:02;11.83;84.60
82001;SHT30;71522;50.870;3.524;2023-11-19T06:06:28;11.84;84.42
82001;SHT30;71522;50.870;3.524;2023-11-19T06:08:54;11.83;84.09
82001;SHT30;71522;50.870;3.524;2023-11-19T06:11:20;11.81;84.16
82001;SHT30;71522;50.870;3.524;2023-11-19T06:13:46;11.79;84.15
82001;SHT30;71522;50.870;3.524;2023-11-19T06:16:13;11.74;84.44
82001;SHT30;71522;50.870;3.524;2023-11-19T06:18:39;11.79;84.59
82001;SHT30;71522;50.870;3.524;2023-11-19T06:21:07;11.77;84.62
82001;SHT30;71522;50.870;3.524;2023-11-19T06:23:32;11.77;84.82
82001;SHT30;71522;50.870;3.524;2023-11-19T06:25:58;11.77;84.70
82001;SHT30;71522;50.870;3.524;2023-11-19T06:28:24;11.81;84.62
82001;SHT30;71522;50.870;3.524;2023-11-19T06:30:50;11.79;84.97
82001;SHT30;71522;50.870;3.524;2023-11-19T06:33:16;11.87;84.79
82001;SHT30;71522;50.870;3.524;2023-11-19T06:35:41;11.91;84.77
82001;SHT30;71522;50.870;3.524;2023-11-19T06:38:07;11.91;84.42
82001;SHT30;71522;50.870;3.524;2023-11-19T06:40:34;11.97;84.73
82001;SHT30;71522;50.870;3.524;2023-11-19T06:43:01;11.98;84.52
82001;SHT30;71522;50.870;3.524;2023-11-19T06:45:29;12.04;83.97
82001;SHT30;71522;50.870;3.524;2023-11-19T06:47:55;12.05;83.99
82001;SHT30;71522;50.870;3.524;2023-11-19T06:50:21;12.05;84.01
82001;SHT30;71522;50.870;3.524;2023-11-19T06:52:46;12.05;83.76
82001;SHT30;71522;50.870;3.524;2023-11-19T06:55:12;12.00;83.57
82001;SHT30;71522;50.870;3.524;2023-11-19T06:57:38;11.95;83.77
82001;SHT30;71522;50.870;3.524;2023-11-19T07:00:05;11.91;84.03
82001;SHT30;71522;50.870;3.524;2023-11-19T07:02:31;11.90;83.85
82001;SHT30;71522;50.870;3.524;2023-11-19T07:04:57;11.87;83.89
82001;SHT30;71522;50.870;3.524;2023-11-19T07:07:23;11.87;83.74
82001;SHT30;71522;50.870;3.524;2023-11-19T07:09:50;11.91;83.79
82001;SHT30;71522;50.870;3.524;2023-11-19T07:12:16;11.86;83.50
82001;SHT30;71522;50.870;3.524;2023-11-19T07:14:42;11.86;83.68
82001;SHT30;71522;50.870;3.524;2023-11-19T07:17:07;11.87;83.83
82001;SHT30;71522;50.870;3.524;2023-11-19T07:19:34;11.86;84.10
82001;SHT30;71522;50.870;3.524;2023-11-19T07:22:02;11.90;84.22
82001;SHT30;71522;50.870;3.524;2023-11-19T07:24:27;11.94;83.99
82001;SHT30;71522;50.870;3.524;2023-11-19T07:26:54;12.00;83.98
82001;SHT30;71522;50.870;3.524;2023-11-19T07:29:20;12.08;84.18
82001;SHT30;71522;50.870;3.524;2023-11-19T07:31:49;12.16;84.10
82001;SHT30;71522;50.870;3.524;2023-11-19T07:34:15;12.24;83.83
82001;SHT30;71522;50.870;3.524;2023-11-19T07:36:40;12.24;83.51
82001;SHT30;71522;50.870;3.524;2023-11-19T07:39:06;12.22;83.59
82001;SHT30;71522;50.870;3.524;2023-11-19T07:41:34;12.24;83.53
82001;SHT30;71522;50.870;3.524;2023-11-19T07:44:00;12.27;83.89
82001;SHT30;71522;50.870;3.524;2023-11-19T07:46:26;12.28;83.99
82001;SHT30;71522;50.870;3.524;2023-11-19T07:48:52;12.34;84.06
82001;SHT30;71522;50.870;3.524;2023-11-19T07:51:18;12.41;83.96
82001;SHT30;71522;50.870;3.524;2023-11-19T07:53:44;12.45;83.86
82001;SHT30;71522;50.870;3.524;2023-11-19T07:56:10;12.52;83.71
82001;SHT30;71522;50.870;3.524;2023-11-19T07:58:36;12.55;83.62
82001;SHT30;71522;50.870;3.524;2023-11-19T08:01:05;12.53;84.06
82001;SHT30;71522;50.870;3.524;2023-11-19T08:03:30;12.52;84.50
82001;SHT30;71522;50.870;3.524;2023-11-19T08:05:56;12.55;84.72
82001;SHT30;71522;50.870;3.524;2023-11-19T08:08:22;12.58;84.72
82001;SHT30;71522;50.870;3.524;2023-11-19T08:10:48;12.48;84.98
82001;SHT30;71522;50.870;3.524;2023-11-19T08:13:14;12.45;85.05
82001;SHT30;71522;50.870;3.524;2023-11-19T08:15:40;12.41;84.82
82001;SHT30;71522;50.870;3.524;2023-11-19T08:18:06;12.37;84.60
82001;SHT30;71522;50.870;3.524;2023-11-19T08:20:33;12.31;84.92
82001;SHT30;71522;50.870;3.524;2023-11-19T08:22:59;12.16;85.48
82001;SHT30;71522;50.870;3.524;2023-11-19T08:25:24;12.20;85.40
82001;SHT30;71522;50.870;3.524;2023-11-19T08:27:50;12.30;85.28
82001;SHT30;71522;50.870;3.524;2023-11-19T08:30:16;12.59;84.84
82001;SHT30;71522;50.870;3.524;2023-11-19T08:32:41;12.79;84.42
82001;SHT30;71522;50.870;3.524;2023-11-19T08:35:07;12.82;83.76
82001;SHT30;71522;50.870;3.524;2023-11-19T08:37:33;12.80;83.59
82001;SHT30;71522;50.870;3.524;2023-11-19T08:40:02;12.78;83.16
82001;SHT30;71522;50.870;3.524;2023-11-19T08:42:30;12.73;83.31
82001;SHT30;71522;50.870;3.524;2023-11-19T08:44:55;12.68;83.32
82001;SHT30;71522;50.870;3.524;2023-11-19T08:47:21;12.62;83.35
82001;SHT30;71522;50.870;3.524;2023-11-19T08:49:50;12.62;83.12
82001;SHT30;71522;50.870;3.524;2023-11-19T08:52:17;12.63;83.16
82001;SHT30;71522;50.870;3.524;2023-11-19T08:54:43;12.75;83.24
82001;SHT30;71522;50.870;3.524;2023-11-19T08:57:09;12.89;83.37
82001;SHT30;71522;50.870;3.524;2023-11-19T08:59:35;13.06;83.05
82001;SHT30;71522;50.870;3.524;2023-11-19T09:02:04;13.23;82.58
82001;SHT30;71522;50.870;3.524;2023-11-19T09:04:30;13.37;82.54
82001;SHT30;71522;50.870;3.524;2023-11-19T09:06:57;13.45;82.07
82001;SHT30;71522;50.870;3.524;2023-11-19T09:09:23;13.54;81.83
82001;SHT30;71522;50.870;3.524;2023-11-19T09:11:48;13.50;81.84
82001;SHT30;71522;50.870;3.524;2023-11-19T09:14:14;13.51;81.86
82001;SHT30;71522;50.870;3.524;2023-11-19T09:16:40;13.48;81.92
82001;SHT30;71522;50.870;3.524;2023-11-19T09:19:06;13.53;81.91
82001;SHT30;71522;50.870;3.524;2023-11-19T09:21:35;13.55;81.84
82001;SHT30;71522;50.870;3.524;2023-11-19T09:24:05;13.62;81.55
82001;SHT30;71522;50.870;3.524;2023-11-19T09:26:33;13.82;81.52
82001;SHT30;71522;50.870;3.524;2023-11-19T09:28:58;13.95;81.20
82001;SHT30;71522;50.870;3.524;2023-11-19T09:31:24;13.98;80.39
82001;SHT30;71522;50.870;3.524;2023-11-19T09:33:49;14.08;80.64
82001;SHT30;71522;50.870;3.524;2023-11-19T09:36:15;14.12;80.54
82001;SHT30;71522;50.870;3.524;2023-11-19T09:38:43;14.05;80.55
82001;SHT30;71522;50.870;3.524;2023-11-19T09:41:10;14.02;80.25
82001;SHT30;71522;50.870;3.524;2023-11-19T09:43:39;14.06;80.54
82001;SHT30;71522;50.870;3.524;2023-11-19T09:46:06;14.12;80.12
82001;SHT30;71522;50.870;3.524;2023-11-19T09:48:33;14.05;80.27
82001;SHT30;71522;50.870;3.524;2023-11-19T09:51:01;13.98;80.60
82001;SHT30;71522;50.870;3.524;2023-11-19T09:53:28;13.89;80.39
82001;SHT30;71522;50.870;3.524;2023-11-19T09:55:55;13.86;80.48
82001;SHT30;71522;50.870;3.524;2023-11-19T09:58:21;13.79;80.48
82001;SHT30;71522;50.870;3.524;2023-11-19T10:00:49;13.85;80.92
82001;SHT30;71522;50.870;3.524;2023-11-19T10:03:15;13.83;80.70
82001;SHT30;71522;50.870;3.524;2023-11-19T10:05:41;13.81;80.83
82001;SHT30;71522;50.870;3.524;2023-11-19T10:08:07;13.82;80.95
82001;SHT30;71522;50.870;3.524;2023-11-19T10:10:39;13.95;80.57
82001;SHT30;71522;50.870;3.524;2023-11-19T10:13:05;14.05;79.99
82001;SHT30;71522;50.870;3.524;2023-11-19T10:15:37;13.99;80.00
82001;SHT30;71522;50.870;3.524;2023-11-19T10:18:03;13.96;79.80
82001;SHT30;71522;50.870;3.524;2023-11-19T10:20:36;14.08;79.75
82001;SHT30;71522;50.870;3.524;2023-11-19T10:23:02;14.13;80.06
82001;SHT30;71522;50.870;3.524;2023-11-19T10:25:29;14.24;79.96
82001;SHT30;71522;50.870;3.524;2023-11-19T10:27:56;14.40;79.37
82001;SHT30;71522;50.870;3.524;2023-11-19T10:30:32;14.40;79.34
82001;SHT30;71522;50.870;3.524;2023-11-19T10:33:11;14.32;79.29
82001;SHT30;71522;50.870;3.524;2023-11-19T10:35:54;14.32;79.60
82001;SHT30;71522;50.870;3.524;2023-11-19T10:38:20;14.36;79.51
82001;SHT30;71522;50.870;3.524;2023-11-19T10:40:51;14.43;79.47
82001;SHT30;71522;50.870;3.524;2023-11-19T10:43:18;14.38;79.44
82001;SHT30;71522;50.870;3.524;2023-11-19T10:45:44;14.47;79.74
82001;SHT30;71522;50.870;3.524;2023-11-19T10:48:10;14.40;79.69
82001;SHT30;71522;50.870;3.524;2023-11-19T10:50:39;14.44;79.86
82001;SHT30;71522;50.870;3.524;2023-11-19T10:53:07;14.56;79.61
82001;SHT30;71522;50.870;3.524;2023-11-19T10:55:35;14.63;79.47
82001;SHT30;71522;50.870;3.524;2023-11-19T10:58:04;14.60;79.17
82001;SHT30;71522;50.870;3.524;2023-11-19T11:00:43;14.54;79.48
82001;SHT30;71522;50.870;3.524;2023-11-19T11:03:16;14.61;79.52
82001;SHT30;71522;50.870;3.524;2023-11-19T11:05:42;14.77;79.80
82001;SHT30;71522;50.870;3.524;2023-11-19T11:08:09;15.06;79.46
82001;SHT30;71522;50.870;3.524;2023-11-19T11:10:44;15.13;78.78
82001;SHT30;71522;50.870;3.524;2023-11-19T11:13:11;15.16;78.27
82001;SHT30;71522;50.870;3.524;2023-11-19T11:15:39;15.12;77.95
82001;SHT30;71522;50.870;3.524;2023-11-19T11:18:09;15.13;78.55
82001;SHT30;71522;50.870;3.524;2023-11-19T11:20:35;15.28;78.02
82001;SHT30;71522;50.870;3.524;2023-11-19T11:39:36;15.02;76.58
82001;SHT30;71522;50.870;3.524;2023-11-19T11:45:03;14.47;78.05
82001;SHT30;71522;50.870;3.524;2023-11-19T11:50:15;13.85;81.12
82001;SHT30;71522;50.870;3.524;2023-11-19T11:55:33;13.45;83.08
82001;SHT30;71522;50.870;3.524;2023-11-19T11:58:00;13.31;83.66
82001;SHT30;71522;50.870;3.524;2023-11-19T12:00:29;13.41;83.62
82001;SHT30;71522;50.870;3.524;2023-11-19T12:02:59;13.48;83.39
82001;SHT30;71522;50.870;3.524;2023-11-19T12:05:27;13.66;83.28
82001;SHT30;71522;50.870;3.524;2023-11-19T12:07:56;13.85;82.77
82001;SHT30;71522;50.870;3.524;2023-11-19T12:10:25;14.01;82.03
82001;SHT30;71522;50.870;3.524;2023-11-19T12:12:58;14.09;81.53
82001;SHT30;71522;50.870;3.524;2023-11-19T12:15:24;14.06;81.12
82001;SHT30;71522;50.870;3.524;2023-11-19T12:17:50;14.03;81.07
82001;SHT30;71522;50.870;3.524;2023-11-19T12:20:21;13.99;81.49
82001;SHT30;71522;50.870;3.524;2023-11-19T12:22:48;13.94;81.26
82001;SHT30;71522;50.870;3.524;2023-11-19T12:25:17;13.95;81.30
82001;SHT30;71522;50.870;3.524;2023-11-19T12:27:47;13.89;81.99
82001;SHT30;71522;50.870;3.524;2023-11-19T12:30:23;13.78;82.07
82001;SHT30;71522;50.870;3.524;2023-11-19T12:32:52;13.71;82.20
82001;SHT30;71522;50.870;3.524;2023-11-19T12:35:23;13.64;82.71
82001;SHT30;71522;50.870;3.524;2023-11-19T12:37:51;13.61;82.92
82001;SHT30;71522;50.870;3.524;2023-11-19T12:40:21;13.51;83.48
82001;SHT30;71522;50.870;3.524;2023-11-19T12:42:48;13.33;83.63
82001;SHT30;71522;50.870;3.524;2023-11-19T12:45:14;13.21;84.01
82001;SHT30;71522;50.870;3.524;2023-11-19T12:47:42;13.11;84.15
82001;SHT30;71522;50.870;3.524;2023-11-19T12:50:09;13.07;84.43
82001;SHT30;71522;50.870;3.524;2023-11-19T12:52:36;13.00;85.07
82001;SHT30;71522;50.870;3.524;2023-11-19T12:57:47;13.04;85.48
82001;SHT30;71522;50.870;3.524;2023-11-19T13:00:21;13.18;84.98
82001;SHT30;71522;50.870;3.524;2023-11-19T13:02:51;13.21;84.29
82001;SHT30;71522;50.870;3.524;2023-11-19T13:05:28;13.44;83.94
82001;SHT30;71522;50.870;3.524;2023-11-19T13:08:05;13.48;82.23
82001;SHT30;71522;50.870;3.524;2023-11-19T13:10:32;13.47;81.77
82001;SHT30;71522;50.870;3.524;2023-11-19T13:15:28;13.47;81.40
82001;SHT30;71522;50.870;3.524;2023-11-19T13:17:54;13.55;81.70
82001;SHT30;71522;50.870;3.524;2023-11-19T13:20:19;13.57;80.97
82001;SHT30;71522;50.870;3.524;2023-11-19T13:23:02;13.64;81.13
82001;SHT30;71522;50.870;3.524;2023-11-19T13:25:30;13.76;80.94
82001;SHT30;71522;50.870;3.524;2023-11-19T13:27:56;13.82;80.94
82001;SHT30;71522;50.870;3.524;2023-11-19T13:30:23;13.69;80.55
82001;SHT30;71522;50.870;3.524;2023-11-19T13:32:50;13.57;80.80
82001;SHT30;71522;50.870;3.524;2023-11-19T13:35:17;13.36;81.41
82001;SHT30;71522;50.870;3.524;2023-11-19T13:37:44;13.21;82.47
82001;SHT30;71522;50.870;3.524;2023-11-19T13:40:11;13.11;83.26
82001;SHT30;71522;50.870;3.524;2023-11-19T13:42:40;12.95;83.74
82001;SHT30;71522;50.870;3.524;2023-11-19T13:45:13;12.95;83.58
82001;SHT30;71522;50.870;3.524;2023-11-19T13:47:43;12.83;84.29
82001;SHT30;71522;50.870;3.524;2023-11-19T13:50:09;12.80;84.32
82001;SHT30;71522;50.870;3.524;2023-11-19T13:52:37;12.69;84.41
82001;SHT30;71522;50.870;3.524;2023-11-19T13:55:09;12.80;84.41
82001;SHT30;71522;50.870;3.524;2023-11-19T13:57:40;12.78;84.25
82001;SHT30;71522;50.870;3.524;2023-11-19T14:00:08;12.85;84.21
82001;SHT30;71522;50.870;3.524;2023-11-19T14:02:45;12.96;83.33
82001;SHT30;71522;50.870;3.524;2023-11-19T14:05:13;13.24;82.83
82001;SHT30;71522;50.870;3.524;2023-11-19T14:07:39;13.17;82.27
82001;SHT30;71522;50.870;3.524;2023-11-19T14:10:07;13.18;81.82
82001;SHT30;71522;50.870;3.524;2023-11-19T14:12:38;13.13;81.79
82001;SHT30;71522;50.870;3.524;2023-11-19T14:15:07;13.18;81.87
82001;SHT30;71522;50.870;3.524;2023-11-19T14:17:35;13.08;82.16
82001;SHT30;71522;50.870;3.524;2023-11-19T14:20:01;13.24;81.72
82001;SHT30;71522;50.870;3.524;2023-11-19T14:22:27;13.36;81.48
82001;SHT30;71522;50.870;3.524;2023-11-19T14:24:53;13.47;81.28
82001;SHT30;71522;50.870;3.524;2023-11-19T14:27:19;13.53;80.97
82001;SHT30;71522;50.870;3.524;2023-11-19T14:29:45;13.57;80.47
82001;SHT30;71522;50.870;3.524;2023-11-19T14:32:11;13.55;80.44
82001;SHT30;71522;50.870;3.524;2023-11-19T14:34:37;13.54;80.86
82001;SHT30;71522;50.870;3.524;2023-11-19T14:37:02;13.54;80.91
82001;SHT30;71522;50.870;3.524;2023-11-19T14:39:28;13.38;80.98
82001;SHT30;71522;50.870;3.524;2023-11-19T14:41:57;13.31;81.08
82001;SHT30;71522;50.870;3.524;2023-11-19T14:44:27;13.24;81.40
82001;SHT30;71522;50.870;3.524;2023-11-19T14:46:52;13.23;81.31
82001;SHT30;71522;50.870;3.524;2023-11-19T14:49:18;13.18;81.18
82001;SHT30;71522;50.870;3.524;2023-11-19T14:51:44;13.26;81.33
82001;SHT30;71522;50.870;3.524;2023-11-19T14:54:09;13.17;80.95
82001;SHT30;71522;50.870;3.524;2023-11-19T14:56:35;13.21;80.56
82001;SHT30;71522;50.870;3.524;2023-11-19T14:59:01;13.23;80.28
82001;SHT30;71522;50.870;3.524;2023-11-19T15:01:27;13.24;80.62
82001;SHT30;71522;50.870;3.524;2023-11-19T15:03:55;13.16;80.01
82001;SHT30;71522;50.870;3.524;2023-11-19T15:06:24;13.20;80.46
82001;SHT30;71522;50.870;3.524;2023-11-19T15:08:54;13.07;80.77
82001;SHT30;71522;50.870;3.524;2023-11-19T15:11:22;13.03;81.04
82001;SHT30;71522;50.870;3.524;2023-11-19T15:13:49;12.95;81.63
82001;SHT30;71522;50.870;3.524;2023-11-19T15:16:14;12.93;81.10
82001;SHT30;71522;50.870;3.524;2023-11-19T15:18:42;12.93;81.57
82001;SHT30;71522;50.870;3.524;2023-11-19T15:21:08;12.99;81.52
82001;SHT30;71522;50.870;3.524;2023-11-19T15:23:34;12.93;81.73
82001;SHT30;71522;50.870;3.524;2023-11-19T15:26:00;12.90;81.84
82001;SHT30;71522;50.870;3.524;2023-11-19T15:28:26;12.86;82.16
82001;SHT30;71522;50.870;3.524;2023-11-19T15:30:52;12.82;82.37
82001;SHT30;71522;50.870;3.524;2023-11-19T15:33:18;12.78;82.41
82001;SHT30;71522;50.870;3.524;2023-11-19T15:35:43;12.68;82.46
82001;SHT30;71522;50.870;3.524;2023-11-19T15:38:09;12.62;83.41
82001;SHT30;71522;50.870;3.524;2023-11-19T15:40:35;12.48;84.30
82001;SHT30;71522;50.870;3.524;2023-11-19T15:43:03;12.34;84.74
82001;SHT30;71522;50.870;3.524;2023-11-19T15:45:30;12.35;84.91
82001;SHT30;71522;50.870;3.524;2023-11-19T15:47:55;12.37;84.72
82001;SHT30;71522;50.870;3.524;2023-11-19T15:50:21;12.39;84.68
82001;SHT30;71522;50.870;3.524;2023-11-19T15:52:48;12.38;84.61
82001;SHT30;71522;50.870;3.524;2023-11-19T15:55:14;12.41;84.73
82001;SHT30;71522;50.870;3.524;2023-11-19T15:57:39;12.38;84.70
82001;SHT30;71522;50.870;3.524;2023-11-19T16:00:05;12.44;84.45